Time;durP1;ratioP1;P1;durP2;ratioP2;P2;SDS_P1;SDS_P2;PMS_P1;PMS_P2;Temp;Humidity;BMP_temperature;BMP_pressure;BME280_temperature;BME280_humidity;BME280_pressure;Samples;Min_cycle;Max_cycle;Signal;HPM_P1;HPM_P2
2021/01/20 00:02:19;;;;;;;1.47;1.37;;;;;;;2.24;84.30;97726.94;5115385;28;20207;-66
2021/01/20 00:04:45;;;;;;;1.50;1.40;;;;;;;2.23;85.00;97727.84;5115391;28;20202;-66
2021/01/20 00:07:11;;;;;;;1.50;1.27;;;;;;;2.24;84.96;97724.34;5115226;28;20293;-67
2021/01/20 00:09:37;;;;;;;2.00;1.30;;;;;;;2.21;85.34;97729.66;5113824;28;20214;-67
2021/01/20 00:12:03;;;;;;;2.23;1.63;;;;;;;2.16;86.20;97718.59;5115331;28;20243;-68
2021/01/20 00:14:29;;;;;;;1.80;1.60;;;;;;;2.25;85.14;97723.41;5114347;28;20583;-67
2021/01/20 00:16:56;;;;;;;1.33;1.20;;;;;;;2.15;86.00;97719.50;5115015;28;20210;-67
2021/01/20 00:19:22;;;;;;;1.50;1.40;;;;;;;2.13;86.93;97721.31;5114928;28;20212;-67
2021/01/20 00:21:48;;;;;;;2.87;1.60;;;;;;;2.05;87.31;97723.41;5115185;28;20242;-66
2021/01/20 00:24:15;;;;;;;1.50;1.40;;;;;;;2.06;87.56;97719.91;5114819;28;20246;-66
2021/01/20 00:26:41;;;;;;;1.53;1.40;;;;;;;2.08;87.54;97718.06;5114773;28;20695;-66
2021/01/20 00:29:06;;;;;;;1.97;1.57;;;;;;;2.08;87.64;97707.63;5115004;28;20289;-66
2021/01/20 00:31:33;;;;;;;2.90;1.40;;;;;;;2.06;87.61;97719.91;5114657;28;20671;-67
2021/01/20 00:34:00;;;;;;;1.90;1.40;;;;;;;2.01;88.79;97711.41;5114621;28;20203;-67
2021/01/20 00:36:26;;;;;;;1.60;1.50;;;;;;;2.04;88.20;97710.44;5114847;28;20226;-69
2021/01/20 00:38:52;;;;;;;1.60;1.43;;;;;;;2.04;88.85;97705.22;5116956;28;20700;-69
2021/01/20 00:41:17;;;;;;;1.50;1.40;;;;;;;2.09;88.18;97704.13;5116021;28;20211;-69
2021/01/20 00:43:43;;;;;;;1.77;1.50;;;;;;;2.13;88.52;97705.69;5114664;28;20727;-65
2021/01/20 00:46:09;;;;;;;1.97;1.43;;;;;;;2.09;89.06;97709.31;5114252;28;20232;-65
2021/01/20 00:48:35;;;;;;;1.93;1.47;;;;;;;2.05;89.98;97706.91;5114542;28;20212;-65
2021/01/20 00:51:02;;;;;;;1.50;1.20;;;;;;;2.10;89.63;97700.63;5114512;28;20210;-65
2021/01/20 00:53:28;;;;;;;1.97;1.53;;;;;;;2.15;89.94;97703.84;5114591;28;20212;-65
2021/01/20 00:55:55;;;;;;;1.50;1.40;;;;;;;2.11;90.44;97701.44;5114199;28;20221;-67
2021/01/20 00:58:20;;;;;;;1.67;1.57;;;;;;;2.14;90.03;97696.94;5114336;28;20591;-68
2021/01/20 01:00:46;;;;;;;2.17;1.40;;;;;;;2.13;90.48;97689.19;5113981;28;20210;-69
2021/01/20 01:03:12;;;;;;;1.60;1.27;;;;;;;2.12;90.67;97696.19;5112948;28;20206;-67
2021/01/20 01:05:38;;;;;;;2.13;1.47;;;;;;;2.07;90.78;97700.72;5114328;28;20210;-67
2021/01/20 01:08:06;;;;;;;1.70;1.40;;;;;;;2.03;91.18;97687.91;5114025;28;20646;-66
2021/01/20 01:10:32;;;;;;;1.40;1.30;;;;;;;2.01;91.78;97685.34;5114191;28;20233;-68
2021/01/20 01:12:58;;;;;;;1.70;1.30;;;;;;;1.97;91.69;97686.38;5114239;28;20593;-67
2021/01/20 01:15:24;;;;;;;1.87;1.70;;;;;;;1.99;91.94;97687.19;5114111;28;20243;-68
2021/01/20 01:17:50;;;;;;;2.23;1.60;;;;;;;1.99;92.28;97676.78;5113780;28;20788;-68
2021/01/20 01:20:16;;;;;;;1.87;1.40;;;;;;;2.00;92.43;97673.25;5114171;28;20296;-68
2021/01/20 01:22:42;;;;;;;1.60;1.50;;;;;;;1.99;92.33;97671.56;5114129;28;20243;-67
2021/01/20 01:25:10;;;;;;;2.50;1.80;;;;;;;1.97;92.48;97668.16;5114066;28;20211;-66
2021/01/20 01:27:36;;;;;;;1.90;1.60;;;;;;;1.96;93.30;97669.06;5111766;28;20236;-66
2021/01/20 01:30:03;;;;;;;2.10;1.53;;;;;;;1.94;93.78;97668.28;5114071;28;20211;-67
2021/01/20 01:32:29;;;;;;;1.90;1.50;;;;;;;1.97;93.93;97662.94;5113902;28;20469;-67
2021/01/20 01:34:55;;;;;;;2.20;1.63;;;;;;;1.97;93.64;97662.94;5113734;28;20238;-67
2021/01/20 01:37:21;;;;;;;1.97;1.43;;;;;;;1.94;94.23;97660.47;5113678;28;20235;-67
2021/01/20 01:39:47;;;;;;;1.70;1.30;;;;;;;2.04;94.38;97667.00;5113797;28;20241;-66
2021/01/20 01:42:14;;;;;;;2.13;1.63;;;;;;;2.05;94.09;97655.66;5113870;28;20206;-66
2021/01/20 01:44:40;;;;;;;1.67;1.57;;;;;;;2.08;94.00;97660.72;5113695;28;20214;-67
2021/01/20 01:47:06;;;;;;;1.50;1.23;;;;;;;2.12;93.71;97646.66;5113699;28;20296;-67
2021/01/20 01:49:32;;;;;;;1.90;1.30;;;;;;;2.19;93.37;97650.69;5113801;28;20733;-66
2021/01/20 01:52:00;;;;;;;2.33;1.40;;;;;;;2.25;93.36;97653.03;5113379;28;20211;-66
2021/01/20 01:54:27;;;;;;;1.47;1.30;;;;;;;2.23;92.83;97654.84;5111980;28;20206;-66
2021/01/20 01:56:53;;;;;;;1.73;1.40;;;;;;;2.16;93.57;97643.00;5113611;28;20243;-66
2021/01/20 01:59:20;;;;;;;1.93;1.50;;;;;;;2.20;93.11;97639.34;5113597;28;20722;-66
2021/01/20 02:01:46;;;;;;;1.67;1.30;;;;;;;2.17;93.73;97644.69;5113413;28;20211;-66
2021/01/20 02:04:12;;;;;;;1.67;1.30;;;;;;;2.12;93.46;97640.59;5113705;28;20206;-66
2021/01/20 02:06:39;;;;;;;1.67;1.37;;;;;;;2.11;94.05;97631.94;5113335;28;20642;-66
2021/01/20 02:09:05;;;;;;;2.87;1.40;;;;;;;2.12;93.75;97640.59;5113392;28;20209;-66
2021/01/20 02:11:42;;;;;;;1.77;1.53;;;;;;;2.12;93.38;97635.38;5113310;28;20214;-66
2021/01/20 02:14:27;;;;;;;1.80;1.60;;;;;;;2.11;93.73;97634.53;5113628;28;20295;-66
2021/01/20 02:17:05;;;;;;;1.90;1.53;;;;;;;2.09;93.38;97638.97;5113619;28;20581;-66
2021/01/20 02:19:50;;;;;;;2.40;1.57;;;;;;;2.07;93.83;97634.72;5111757;28;20218;-66
2021/01/20 02:22:26;;;;;;;1.77;1.53;;;;;;;2.05;94.11;97634.81;5113392;28;20621;-66
2021/01/20 02:25:05;;;;;;;1.73;1.63;;;;;;;2.05;94.29;97644.38;5113400;28;20226;-66
2021/01/20 02:27:41;;;;;;;1.60;1.50;;;;;;;1.98;94.68;97642.94;5113313;28;20579;-66
2021/01/20 02:30:10;;;;;;;2.07;1.70;;;;;;;1.99;94.94;97640.28;5113234;28;20210;-66
2021/01/20 02:32:38;;;;;;;1.90;1.60;;;;;;;2.02;95.06;97634.94;5113189;28;20198;-65
2021/01/20 02:35:05;;;;;;;3.47;1.70;;;;;;;1.99;95.51;97639.44;5113230;28;20222;-63
2021/01/20 02:37:32;;;;;;;2.50;1.60;;;;;;;2.03;95.80;97646.22;5113133;28;20231;-65
2021/01/20 02:39:59;;;;;;;1.93;1.67;;;;;;;2.08;95.30;97645.09;5116566;28;20207;-64
2021/01/20 02:42:25;;;;;;;2.50;1.67;;;;;;;2.16;94.54;97643.00;5116596;28;20210;-64
2021/01/20 02:44:51;;;;;;;1.63;1.40;;;;;;;2.14;94.37;97634.38;5116224;28;20221;-67
2021/01/20 02:47:18;;;;;;;2.30;1.50;;;;;;;2.10;94.96;97638.06;5115936;28;20605;-68
2021/01/20 02:49:45;;;;;;;2.00;1.60;;;;;;;2.16;94.95;97635.19;5116817;28;20682;-64
2021/01/20 02:52:20;;;;;;;1.67;1.53;;;;;;;2.13;95.62;97624.88;5116730;28;20207;-66
2021/01/20 02:54:47;;;;;;;2.43;1.77;;;;;;;2.12;95.29;97624.94;5116980;28;20205;-65
2021/01/20 02:57:14;;;;;;;1.60;1.50;;;;;;;2.15;95.37;97628.25;5116486;28;20678;-65
2021/01/20 02:59:42;;;;;;;2.20;1.50;;;;;;;2.19;94.64;97624.63;5116628;28;20244;-69
2021/01/20 03:02:12;;;;;;;2.17;1.47;;;;;;;2.33;94.12;97624.84;5116751;28;20203;-72
2021/01/20 03:04:42;;;;;;;1.37;1.27;;;;;;;2.39;93.69;97628.94;5116710;28;20218;-66
2021/01/20 03:07:08;;;;;;;1.53;1.43;;;;;;;2.41;93.82;97622.75;5116772;28;20206;-66
2021/01/20 03:09:36;;;;;;;1.23;1.13;;;;;;;2.45;93.96;97621.69;5116415;28;20300;-66
2021/01/20 03:12:04;;;;;;;1.57;1.30;;;;;;;2.48;93.09;97624.16;5114999;28;20212;-65
2021/01/20 03:14:32;;;;;;;1.53;1.30;;;;;;;2.52;93.15;97615.25;5116391;28;20668;-65
2021/01/20 03:16:58;;;;;;;1.50;1.40;;;;;;;2.58;92.31;97622.00;5116297;28;20206;-65
2021/01/20 03:19:24;;;;;;;2.17;1.23;;;;;;;2.60;91.99;97615.78;5116284;28;20212;-65
2021/01/20 03:21:51;;;;;;;1.77;1.33;;;;;;;2.59;91.60;97610.63;5116316;28;20207;-66
2021/01/20 03:24:17;;;;;;;1.77;1.40;;;;;;;2.62;91.16;97606.13;5116064;28;20207;-65
2021/01/20 03:26:42;;;;;;;1.40;1.30;;;;;;;2.59;92.00;97606.28;5116223;28;20264;-65
2021/01/20 03:29:08;;;;;;;1.63;1.40;;;;;;;2.64;91.34;97606.88;5115996;28;20620;-65
2021/01/20 03:31:34;;;;;;;1.90;1.40;;;;;;;2.60;92.29;97604.50;5115862;28;20234;-65
2021/01/20 03:34:00;;;;;;;1.73;1.40;;;;;;;2.59;92.19;97603.66;5116343;28;20289;-64
2021/01/20 03:36:27;;;;;;;1.53;1.43;;;;;;;2.57;92.65;97602.88;5116165;28;20215;-66
2021/01/20 03:38:54;;;;;;;2.50;1.47;;;;;;;2.66;91.94;97601.59;5114019;28;20231;-66
2021/01/20 03:41:20;;;;;;;1.53;1.40;;;;;;;2.64;92.13;97598.22;5115798;28;20677;-66
2021/01/20 03:43:46;;;;;;;1.50;1.30;;;;;;;2.58;92.38;97599.34;5116021;28;20221;-67
2021/01/20 03:46:12;;;;;;;1.93;1.60;;;;;;;2.62;92.42;97600.03;5115692;28;20210;-67
2021/01/20 03:48:38;;;;;;;1.90;1.20;;;;;;;2.58;92.53;97594.13;5115730;28;20206;-67
2021/01/20 03:51:05;;;;;;;1.20;1.10;;;;;;;2.62;92.27;97598.28;5115615;28;20207;-66
2021/01/20 03:53:30;;;;;;;1.20;1.10;;;;;;;2.63;92.18;97580.88;5115615;28;20206;-66
2021/01/20 03:55:57;;;;;;;1.90;1.10;;;;;;;2.62;92.21;97585.25;5117059;27;20208;-66
2021/01/20 03:58:23;;;;;;;1.53;1.20;;;;;;;2.55;93.06;97583.84;5117606;28;20234;-67
2021/01/20 04:00:50;;;;;;;1.30;1.07;;;;;;;2.61;92.78;97583.56;5115714;28;20215;-66
2021/01/20 04:03:16;;;;;;;1.40;1.30;;;;;;;2.58;93.20;97578.47;5113741;28;20306;-67
2021/01/20 04:05:42;;;;;;;1.40;1.30;;;;;;;2.54;93.31;97576.94;5115384;28;20219;-66
2021/01/20 04:08:07;;;;;;;1.93;1.30;;;;;;;2.59;92.89;97580.19;5115620;28;20206;-66
2021/01/20 04:10:33;;;;;;;1.47;1.37;;;;;;;2.48;93.83;97577.22;5115278;28;20244;-66
2021/01/20 04:13:00;;;;;;;2.03;1.40;;;;;;;2.46;94.30;97575.59;5115476;28;20292;-65
2021/01/20 04:15:26;;;;;;;1.73;1.27;;;;;;;2.49;93.92;97572.84;5115025;28;20212;-66
2021/01/20 04:17:52;;;;;;;1.57;1.30;;;;;;;2.54;93.74;97579.56;5115409;28;20275;-66
2021/01/20 04:20:18;;;;;;;2.20;1.50;;;;;;;2.58;93.22;97572.44;5115021;28;20209;-66
2021/01/20 04:22:44;;;;;;;1.40;1.30;;;;;;;2.58;92.97;97578.47;5115330;28;20213;-67
2021/01/20 04:25:11;;;;;;;1.20;1.10;;;;;;;2.60;92.80;97568.84;5115184;27;20292;-66
2021/01/20 04:27:37;;;;;;;1.50;1.40;;;;;;;2.67;92.41;97557.19;5114726;28;20227;-66
2021/01/20 04:30:06;;;;;;;1.40;1.30;;;;;;;2.61;93.34;97559.22;5113495;28;20620;-67
2021/01/20 04:32:32;;;;;;;1.43;1.30;;;;;;;2.65;93.19;97559.03;5114945;28;20205;-67
2021/01/20 04:34:58;;;;;;;2.63;1.40;;;;;;;2.65;92.80;97553.81;5115033;28;20206;-67
2021/01/20 04:37:24;;;;;;;3.10;1.53;;;;;;;2.69;92.65;97542.31;5115233;28;20275;-66
2021/01/20 04:39:50;;;;;;;1.57;1.47;;;;;;;2.72;92.34;97551.75;5115244;28;20251;-64
2021/01/20 04:42:16;;;;;;;2.37;1.50;;;;;;;2.64;93.06;97557.31;5114905;28;20289;-65
2021/01/20 04:44:42;;;;;;;1.47;1.37;;;;;;;2.60;92.94;97539.28;5114466;28;20292;-65
2021/01/20 04:47:10;;;;;;;1.30;1.20;;;;;;;2.52;93.54;97544.84;5114532;28;20351;-65
2021/01/20 04:49:37;;;;;;;2.07;1.50;;;;;;;2.47;93.64;97543.38;5114767;28;20210;-65
2021/01/20 04:52:06;;;;;;;1.77;1.50;;;;;;;2.46;94.12;97541.69;5114513;28;20567;-65
2021/01/20 04:54:33;;;;;;;1.63;1.37;;;;;;;2.44;94.02;97533.94;5114252;28;20335;-65
2021/01/20 04:56:59;;;;;;;2.10;1.30;;;;;;;2.41;94.69;97541.06;5112836;28;20212;-65
2021/01/20 04:59:28;;;;;;;2.07;1.60;;;;;;;2.38;95.16;97544.66;5114440;28;20248;-65
2021/01/20 05:01:56;;;;;;;2.27;1.73;;;;;;;2.38;95.00;97543.81;5113738;28;20209;-64
2021/01/20 05:04:23;;;;;;;2.03;1.50;;;;;;;2.34;95.08;97543.09;5114452;28;20215;-65
2021/01/20 05:06:49;;;;;;;2.20;2.00;;;;;;;2.38;94.56;97536.84;5114134;28;20213;-65
2021/01/20 05:09:15;;;;;;;2.77;2.07;;;;;;;2.37;94.67;97536.91;5114374;28;20204;-65
2021/01/20 05:11:43;;;;;;;3.00;1.77;;;;;;;2.36;95.06;97533.47;5114266;28;20210;-66
2021/01/20 05:14:14;;;;;;;3.20;2.00;;;;;;;2.35;95.27;97536.13;5114325;28;20575;-66
2021/01/20 05:16:40;;;;;;;1.97;1.70;;;;;;;2.33;95.25;97540.59;5114316;28;20211;-65
2021/01/20 05:19:06;;;;;;;3.23;2.00;;;;;;;2.34;95.24;97537.88;5114224;28;20238;-65
2021/01/20 05:21:33;;;;;;;2.77;2.20;;;;;;;2.39;94.61;97529.88;5112561;28;20221;-66
2021/01/20 05:24:18;;;;;;;3.23;2.00;;;;;;;2.42;94.29;97527.09;5114082;28;20229;-66
2021/01/20 05:26:45;;;;;;;3.13;2.27;;;;;;;2.45;93.77;97525.19;5113703;28;20712;-66
2021/01/20 05:29:11;;;;;;;3.30;2.40;;;;;;;2.60;93.03;97528.84;5113827;28;20559;-66
2021/01/20 05:31:37;;;;;;;3.33;2.30;;;;;;;2.66;92.81;97529.41;5113901;28;20690;-65
2021/01/20 05:34:03;;;;;;;2.30;2.10;;;;;;;2.80;92.13;97542.63;5113905;28;20290;-65
2021/01/20 05:36:29;;;;;;;3.30;1.90;;;;;;;2.87;91.75;97528.38;5113810;28;20228;-65
2021/01/20 05:38:56;;;;;;;4.47;2.50;;;;;;;2.93;91.44;97535.91;5113438;28;20234;-65
2021/01/20 05:41:25;;;;;;;2.60;1.83;;;;;;;3.03;90.79;97524.09;5113644;28;20207;-64
2021/01/20 05:43:52;;;;;;;2.33;1.90;;;;;;;3.25;88.90;97529.13;5113644;28;20218;-67
2021/01/20 05:46:32;;;;;;;2.63;2.07;;;;;;;3.21;89.22;97525.81;5113486;28;20212;-67
2021/01/20 05:48:58;;;;;;;3.53;2.20;;;;;;;3.24;89.20;97528.25;5112157;28;20210;-67
2021/01/20 05:51:24;;;;;;;3.13;2.00;;;;;;;3.25;88.86;97521.28;5113929;28;20609;-67
2021/01/20 05:53:52;;;;;;;2.20;2.00;;;;;;;3.32;87.96;97510.47;5113343;28;20665;-67
2021/01/20 05:56:25;;;;;;;3.00;1.93;;;;;;;3.32;88.07;97514.81;5113631;28;20214;-67
2021/01/20 05:58:52;;;;;;;3.33;1.97;;;;;;;3.29;88.40;97510.59;5113225;28;20238;-67
2021/01/20 06:01:19;;;;;;;3.23;2.13;;;;;;;3.36;87.98;97511.97;5113607;28;20217;-65
2021/01/20 06:03:45;;;;;;;4.23;2.47;;;;;;;3.37;87.44;97513.66;5113289;28;20671;-66
2021/01/20 06:06:13;;;;;;;3.70;2.10;;;;;;;3.43;86.99;97509.91;5113513;28;20240;-64
2021/01/20 06:08:39;;;;;;;3.07;1.90;;;;;;;3.44;87.36;97515.06;5113345;28;20207;-66
2021/01/20 06:11:05;;;;;;;3.13;1.90;;;;;;;3.49;86.49;97513.03;5113573;28;20211;-66
2021/01/20 06:13:33;;;;;;;2.20;1.93;;;;;;;3.50;86.54;97508.66;5115005;28;20214;-66
2021/01/20 06:16:05;;;;;;;2.70;2.00;;;;;;;3.50;86.37;97504.31;5117859;28;20205;-66
2021/01/20 06:18:36;;;;;;;3.47;2.30;;;;;;;3.54;86.88;97505.81;5117640;28;20579;-65
2021/01/20 06:21:02;;;;;;;3.40;2.10;;;;;;;3.53;86.42;97509.34;5117610;28;20203;-68
2021/01/20 06:23:32;;;;;;;2.73;2.23;;;;;;;3.51;86.32;97516.44;5117459;28;20206;-68
2021/01/20 06:26:04;;;;;;;3.00;2.00;;;;;;;3.54;86.16;97511.03;5117521;28;20227;-68
2021/01/20 06:28:31;;;;;;;2.73;2.10;;;;;;;3.53;86.19;97509.34;5117532;28;20268;-67
2021/01/20 06:31:05;;;;;;;3.47;2.40;;;;;;;3.50;86.63;97508.66;5117164;28;20701;-66
2021/01/20 06:33:31;;;;;;;3.93;2.07;;;;;;;3.50;86.69;97513.91;5117067;28;21014;-66
2021/01/20 06:35:57;;;;;;;3.17;2.43;;;;;;;3.50;86.58;97512.13;5117021;28;20675;-65
2021/01/20 06:38:38;;;;;;;4.37;2.60;;;;;;;3.53;85.86;97514.59;5116999;28;20709;-65
2021/01/20 06:41:09;;;;;;;4.30;2.40;;;;;;;3.57;86.06;97510.03;5115585;28;20210;-66
2021/01/20 06:43:43;;;;;;;5.73;2.47;;;;;;;3.55;85.71;97506.66;5117028;28;20209;-66
2021/01/20 06:46:19;;;;;;;3.53;2.67;;;;;;;3.53;86.49;97506.75;5116908;28;20210;-66
2021/01/20 06:49:13;;;;;;;2.53;2.30;;;;;;;3.52;86.06;97518.13;5117009;28;20205;-66
2021/01/20 06:51:39;;;;;;;3.90;2.73;;;;;;;3.52;86.88;97510.28;5117076;28;20219;-66
2021/01/20 06:54:11;;;;;;;3.13;2.10;;;;;;;3.56;87.02;97510.97;5117034;28;20212;-66
2021/01/20 06:56:39;;;;;;;2.50;2.20;;;;;;;3.60;85.94;97509.91;5116987;28;20214;-66
2021/01/20 06:59:26;;;;;;;3.47;2.10;;;;;;;3.57;86.15;97508.28;5116950;28;20249;-66
2021/01/20 07:02:13;;;;;;;2.90;2.00;;;;;;;3.62;85.68;97508.88;5113529;28;20213;-65
2021/01/20 07:04:55;;;;;;;2.47;1.90;;;;;;;3.63;85.62;97505.34;5116481;28;20210;-65
2021/01/20 07:08:01;;;;;;;3.37;2.07;;;;;;;3.67;85.14;97500.81;5116507;28;20214;-65
2021/01/20 07:10:46;;;;;;;2.33;1.73;;;;;;;3.74;85.61;97503.00;5112740;28;20202;-65
2021/01/20 07:13:20;;;;;;;2.57;1.60;;;;;;;3.79;84.93;97501.00;5106015;28;20598;-65
2021/01/20 07:15:49;;;;;;;3.17;1.87;;;;;;;3.79;85.20;97510.63;5118051;28;20229;-65
2021/01/20 07:18:17;;;;;;;2.17;1.77;;;;;;;3.84;84.86;97498.19;5118794;28;20284;-65
2021/01/20 07:20:44;;;;;;;1.80;1.50;;;;;;;3.87;84.65;97495.38;5117023;28;20214;-65
2021/01/20 07:23:11;;;;;;;2.80;2.00;;;;;;;3.87;84.91;97504.09;5116190;28;20209;-65
2021/01/20 07:25:37;;;;;;;2.67;1.90;;;;;;;3.86;84.80;97494.53;5115692;28;20214;-65
2021/01/20 07:28:03;;;;;;;3.00;2.67;;;;;;;3.86;84.72;97491.09;5116369;28;20207;-65
2021/01/20 07:30:29;;;;;;;4.17;3.10;;;;;;;3.86;85.39;97496.31;5116341;28;20212;-64
2021/01/20 07:32:56;;;;;;;4.50;2.70;;;;;;;3.86;85.25;97494.53;5114413;28;20198;-66
2021/01/20 07:35:25;;;;;;;5.63;3.27;;;;;;;3.89;84.77;97485.69;5115876;28;20672;-66
2021/01/20 07:38:00;;;;;;;4.83;3.07;;;;;;;3.91;84.22;97479.44;5115995;28;20351;-66
2021/01/20 07:40:28;;;;;;;5.87;3.33;;;;;;;3.90;84.72;97485.59;5115917;28;20572;-65
2021/01/20 07:42:54;;;;;;;4.57;3.30;;;;;;;3.92;84.04;97475.91;5115904;28;20209;-65
2021/01/20 07:45:29;;;;;;;4.73;2.90;;;;;;;3.93;84.17;97485.47;5116142;28;20271;-66
2021/01/20 07:47:55;;;;;;;4.13;3.30;;;;;;;3.96;83.49;97481.81;5116048;28;20583;-65
2021/01/20 07:50:34;;;;;;;5.50;3.60;;;;;;;3.96;83.26;97482.66;5115573;28;20300;-65
2021/01/20 07:53:00;;;;;;;4.53;3.33;;;;;;;3.97;83.47;97476.50;5115836;28;20210;-66
2021/01/20 07:55:26;;;;;;;4.70;3.23;;;;;;;3.99;83.04;97477.28;5115706;27;20210;-67
2021/01/20 07:57:55;;;;;;;5.17;3.37;;;;;;;4.01;83.05;97478.03;5113933;28;20226;-66
2021/01/20 08:00:22;;;;;;;5.57;3.70;;;;;;;4.04;83.05;97480.47;5115524;28;20230;-65
2021/01/20 08:02:48;;;;;;;6.17;3.80;;;;;;;4.07;82.58;97479.47;5115496;28;20312;-65
2021/01/20 08:05:14;;;;;;;5.50;3.70;;;;;;;4.09;81.95;97483.69;5115437;27;20852;-65
2021/01/20 08:07:41;;;;;;;5.23;3.60;;;;;;;4.13;81.95;97485.22;5115253;28;20267;-65
2021/01/20 08:10:17;;;;;;;5.70;3.80;;;;;;;4.16;82.20;97485.03;5115576;28;20208;-65
2021/01/20 08:12:44;;;;;;;8.97;4.00;;;;;;;4.18;81.64;97488.44;5115337;28;20210;-64
2021/01/20 08:15:11;;;;;;;9.27;5.10;;;;;;;4.15;81.88;97483.38;5115505;28;20222;-64
2021/01/20 08:17:37;;;;;;;6.93;5.10;;;;;;;4.17;80.95;97478.88;5115337;28;20206;-65
2021/01/20 08:20:04;;;;;;;7.80;4.67;;;;;;;4.19;80.76;97476.19;5114996;27;20663;-65
2021/01/20 08:22:30;;;;;;;7.80;4.43;;;;;;;4.26;80.45;97465.31;5115036;28;20261;-65
2021/01/20 08:24:57;;;;;;;5.83;4.43;;;;;;;4.27;79.45;97467.00;5113490;28;20276;-65
2021/01/20 08:27:25;;;;;;;6.57;4.80;;;;;;;4.28;79.58;97470.47;5115157;28;20216;-65
2021/01/20 08:29:53;;;;;;;6.83;4.50;;;;;;;4.30;79.37;97468.63;5115062;28;20209;-66
2021/01/20 08:32:20;;;;;;;6.27;4.40;;;;;;;4.38;79.64;97480.34;5114909;28;20552;-65
2021/01/20 08:34:47;;;;;;;7.63;4.47;;;;;;;4.42;79.39;97471.41;5114686;28;20217;-64
2021/01/20 08:37:17;;;;;;;8.00;4.53;;;;;;;4.53;79.18;97479.47;5113958;28;20214;-66
2021/01/20 08:39:52;;;;;;;6.43;4.00;;;;;;;4.57;78.52;97474.91;5114770;28;20284;-65
2021/01/20 08:42:26;;;;;;;6.40;4.07;;;;;;;4.63;77.90;97469.34;5114748;28;20203;-65
2021/01/20 08:45:13;;;;;;;5.20;4.10;;;;;;;4.65;78.37;97467.50;5114723;28;20212;-64
2021/01/20 08:47:47;;;;;;;4.33;3.50;;;;;;;4.78;77.65;97463.25;5114722;28;20228;-65
2021/01/20 08:50:14;;;;;;;4.90;3.50;;;;;;;4.83;76.97;97466.47;5112986;28;20206;-65
2021/01/20 08:52:48;;;;;;;4.60;3.53;;;;;;;4.91;76.92;97465.09;5114630;28;20581;-65
2021/01/20 08:55:25;;;;;;;7.87;3.10;;;;;;;4.96;76.58;97460.41;5114699;28;20233;-65
2021/01/20 08:58:18;;;;;;;4.33;3.00;;;;;;;4.99;77.45;97457.63;5114248;27;20236;-65
2021/01/20 09:00:45;;;;;;;3.93;3.20;;;;;;;5.05;76.58;97457.28;5110933;28;20266;-67
2021/01/20 09:03:12;;;;;;;4.07;3.10;;;;;;;5.08;76.44;97451.84;5113459;28;20210;-67
2021/01/20 09:05:38;;;;;;;5.40;3.00;;;;;;;5.13;75.95;97455.06;5113287;28;20212;-66
2021/01/20 09:08:05;;;;;;;4.13;3.23;;;;;;;5.14;76.60;97446.25;5112890;28;20750;-67
2021/01/20 09:10:31;;;;;;;5.60;4.27;;;;;;;5.21;75.95;97444.13;5111053;28;20204;-68
2021/01/20 09:12:57;;;;;;;6.13;4.20;;;;;;;5.20;76.09;97445.91;5092628;28;20218;-67
2021/01/20 09:15:23;;;;;;;6.50;4.87;;;;;;;5.21;76.60;97437.13;5090678;28;20302;-68
2021/01/20 09:17:49;;;;;;;7.60;4.83;;;;;;;5.19;76.67;97441.59;5092918;28;20218;-66
2021/01/20 09:20:16;;;;;;;8.90;5.93;;;;;;;5.19;76.84;97436.38;5092209;28;20294;-68
2021/01/20 09:22:41;;;;;;;5.77;4.47;;;;;;;5.17;76.88;97435.63;5091808;28;20212;-67
2021/01/20 09:25:09;;;;;;;6.40;4.57;;;;;;;5.17;77.34;97435.63;5092899;28;20273;-67
2021/01/20 09:27:35;;;;;;;7.13;4.53;;;;;;;5.19;77.10;97430.31;5092725;28;20265;-67
2021/01/20 09:30:00;;;;;;;7.27;4.33;;;;;;;5.21;77.00;97436.28;5091238;28;20686;-67
2021/01/20 09:32:29;;;;;;;7.00;4.77;;;;;;;5.24;76.89;97442.19;5095639;28;20233;-68
2021/01/20 09:34:55;;;;;;;8.10;5.50;;;;;;;5.28;76.90;97438.47;5112839;28;20213;-68
2021/01/20 09:37:21;;;;;;;5.70;4.67;;;;;;;5.32;76.42;97433.88;5112150;28;20214;-68
2021/01/20 09:39:48;;;;;;;6.27;4.40;;;;;;;5.36;76.67;97435.34;5112783;28;20230;-67
2021/01/20 09:42:14;;;;;;;6.97;4.70;;;;;;;5.41;76.58;97436.78;5111419;28;20232;-67
2021/01/20 09:44:40;;;;;;;7.23;4.67;;;;;;;5.46;76.04;97442.59;5111980;28;20293;-68
2021/01/20 09:47:06;;;;;;;9.50;4.80;;;;;;;5.51;74.47;97430.03;5112720;28;20208;-67
2021/01/20 09:49:33;;;;;;;5.70;4.50;;;;;;;5.55;73.93;97431.56;5112344;28;20211;-67
2021/01/20 09:51:59;;;;;;;7.50;4.67;;;;;;;5.58;73.47;97428.75;5111934;28;20208;-68
2021/01/20 09:54:25;;;;;;;6.57;4.13;;;;;;;5.61;74.09;97431.19;5112251;28;20663;-68
2021/01/20 09:56:51;;;;;;;8.40;5.40;;;;;;;5.62;73.39;97432.03;5112630;28;20699;-68
2021/01/20 09:59:17;;;;;;;5.80;4.50;;;;;;;5.61;73.72;97415.47;5111434;28;20257;-68
2021/01/20 10:01:43;;;;;;;6.27;4.50;;;;;;;5.64;73.30;97410.03;5112622;28;20208;-69
2021/01/20 10:04:09;;;;;;;9.20;5.13;;;;;;;5.69;72.67;97407.97;5113602;28;20305;-67
2021/01/20 10:06:36;;;;;;;6.97;4.50;;;;;;;5.64;73.68;97402.19;5113445;28;20211;-67
2021/01/20 10:09:02;;;;;;;6.20;5.17;;;;;;;5.63;73.80;97408.34;5111790;28;20209;-67
2021/01/20 10:11:28;;;;;;;6.60;4.83;;;;;;;5.67;73.02;97398.53;5113558;28;20205;-68
2021/01/20 10:13:54;;;;;;;5.90;4.13;;;;;;;5.68;72.60;97403.66;5113372;28;20646;-68
2021/01/20 10:16:20;;;;;;;6.53;4.30;;;;;;;5.68;73.14;97401.03;5113179;28;20215;-68
2021/01/20 10:18:48;;;;;;;6.07;4.30;;;;;;;5.71;73.13;97393.00;5113566;28;20327;-68
2021/01/20 10:21:14;;;;;;;6.10;4.40;;;;;;;5.67;73.53;97388.03;5113506;28;20216;-66
2021/01/20 10:23:40;;;;;;;6.17;4.57;;;;;;;5.68;73.18;97381.88;5113196;28;20270;-67
2021/01/20 10:26:08;;;;;;;7.30;4.60;;;;;;;5.62;73.51;97385.69;5111244;28;20220;-67
2021/01/20 10:28:34;;;;;;;5.60;4.20;;;;;;;5.63;73.42;97376.88;5111428;28;20212;-66
2021/01/20 10:31:00;;;;;;;6.33;4.37;;;;;;;5.56;73.69;97380.81;5112805;28;20444;-69
2021/01/20 10:33:26;;;;;;;4.13;3.70;;;;;;;5.55;73.87;97373.91;5113131;28;20681;-68
2021/01/20 10:35:52;;;;;;;4.17;3.77;;;;;;;5.52;73.60;97368.00;5111406;28;20205;-72
2021/01/20 10:38:20;;;;;;;5.00;4.17;;;;;;;5.50;74.74;97362.84;5113663;28;20754;-69
2021/01/20 10:40:47;;;;;;;5.67;3.93;;;;;;;5.60;73.58;97365.75;5114640;28;20213;-69
2021/01/20 10:43:13;;;;;;;5.27;3.40;;;;;;;5.64;72.70;97359.38;5111997;28;20216;-69
2021/01/20 10:45:38;;;;;;;4.57;3.77;;;;;;;5.63;73.43;97353.28;5111722;28;20249;-69
2021/01/20 10:48:05;;;;;;;4.93;3.43;;;;;;;5.67;73.68;97356.59;5112241;28;20220;-69
2021/01/20 10:50:31;;;;;;;6.07;3.87;;;;;;;5.76;72.29;97346.38;5111432;28;20219;-69
2021/01/20 10:52:57;;;;;;;4.50;3.67;;;;;;;5.79;72.35;97340.94;5112621;28;20711;-69
2021/01/20 10:55:23;;;;;;;5.57;3.97;;;;;;;5.83;72.57;97337.22;5114185;28;20217;-70
2021/01/20 10:57:50;;;;;;;5.83;3.90;;;;;;;5.84;71.55;97333.66;5112667;28;20213;-71
2021/01/20 11:00:16;;;;;;;6.17;4.07;;;;;;;5.88;71.87;97332.53;5113547;28;20226;-70
2021/01/20 11:02:42;;;;;;;4.33;3.83;;;;;;;5.92;70.35;97328.75;5115998;28;20247;-69
2021/01/20 11:05:10;;;;;;;5.93;4.00;;;;;;;5.99;70.69;97324.78;5114886;28;20205;-69
2021/01/20 11:07:36;;;;;;;3.83;2.90;;;;;;;6.10;71.00;97324.97;5115541;28;20213;-69
2021/01/20 11:10:05;;;;;;;6.63;3.67;;;;;;;6.17;70.03;97314.94;5115243;28;20256;-69
2021/01/20 11:12:31;;;;;;;3.97;3.13;;;;;;;6.34;70.92;97305.00;5116768;28;20211;-67
2021/01/20 11:14:57;;;;;;;5.80;4.00;;;;;;;6.48;70.34;97299.69;5116812;28;20632;-69
2021/01/20 11:17:23;;;;;;;7.00;3.80;;;;;;;6.59;70.20;97291.94;5116586;28;20220;-69
2021/01/20 11:19:49;;;;;;;5.07;3.80;;;;;;;6.73;69.24;97297.09;5116171;28;20613;-69
2021/01/20 11:22:16;;;;;;;6.10;4.20;;;;;;;6.78;69.50;97292.38;5116130;28;20209;-68
2021/01/20 11:24:42;;;;;;;5.33;4.07;;;;;;;6.83;69.86;97290.31;5116312;28;20583;-69
2021/01/20 11:27:07;;;;;;;7.23;4.50;;;;;;;6.90;69.02;97290.75;5114726;28;20215;-69
2021/01/20 11:29:33;;;;;;;6.83;4.57;;;;;;;6.91;69.21;97293.25;5116223;28;20214;-68
2021/01/20 11:32:00;;;;;;;5.10;4.13;;;;;;;6.95;68.66;97284.22;5115861;28;20221;-69
2021/01/20 11:34:26;;;;;;;5.27;3.87;;;;;;;6.99;68.71;97275.19;5115396;28;20224;-69
2021/01/20 11:36:52;;;;;;;7.40;4.53;;;;;;;7.06;68.77;97272.97;5115137;28;20221;-69
2021/01/20 11:39:18;;;;;;;5.03;3.93;;;;;;;7.12;68.71;97270.78;5113603;28;20806;-69
2021/01/20 11:41:44;;;;;;;5.33;3.80;;;;;;;7.18;67.74;97261.59;5115330;28;20662;-69
2021/01/20 11:44:10;;;;;;;6.97;4.33;;;;;;;7.19;66.73;97256.25;5115570;28;20248;-69
2021/01/20 11:46:36;;;;;;;6.40;3.87;;;;;;;7.22;66.65;97266.56;5115908;28;20660;-69